createdAt,value
2022-10-14T00:01:13.528Z,83.17
2022-10-14T00:03:41.020Z,83.42
2022-10-14T00:06:13.202Z,83.45
2022-10-14T00:08:40.764Z,83.09
2022-10-14T00:11:22.043Z,82.31
2022-10-14T00:13:49.503Z,81.74
2022-10-14T00:16:22.145Z,82.21
2022-10-14T00:18:49.677Z,82.58
2022-10-14T00:21:16.859Z,82.58
2022-10-14T00:23:44.509Z,82.44
2022-10-14T00:26:32.876Z,82.41
2022-10-14T00:29:00.539Z,82.58
2022-10-14T00:31:31.621Z,83.21
2022-10-14T00:33:58.899Z,83.29
2022-10-14T00:36:26.346Z,83.07
2022-10-14T00:38:54.226Z,82.50
2022-10-14T00:41:26.379Z,83.02
2022-10-14T00:44:17.025Z,83.60
2022-10-14T00:46:45.879Z,83.86
2022-10-14T00:49:31.739Z,83.50
2022-10-14T00:52:02.747Z,84.09
2022-10-14T00:54:37.639Z,84.41
2022-10-14T00:57:05.387Z,84.03
2022-10-14T00:59:33.024Z,83.54
2022-10-14T01:02:00.313Z,83.70
2022-10-14T01:04:27.694Z,83.75
2022-10-14T01:07:01.340Z,83.54
2022-10-14T01:09:35.999Z,83.38
2022-10-14T01:12:29.202Z,83.45
2022-10-14T01:15:00.208Z,83.45
2022-10-14T01:17:34.349Z,83.81
2022-10-14T01:20:13.737Z,84.18
2022-10-14T01:23:09.414Z,83.85
2022-10-14T01:26:06.757Z,83.32
2022-10-14T01:28:45.761Z,83.48
2022-10-14T01:31:16.956Z,84.70
2022-10-14T01:33:45.079Z,85.08
2022-10-14T01:36:22.015Z,85.08
2022-10-14T01:39:03.053Z,85.12
2022-10-14T01:41:36.096Z,85.20
2022-10-14T01:44:05.826Z,85.16
2022-10-14T01:46:33.074Z,84.83
2022-10-14T01:49:07.431Z,84.94
2022-10-14T01:51:51.237Z,84.79
2022-10-14T01:54:21.064Z,85.01
2022-10-14T01:56:48.376Z,85.89
2022-10-14T01:59:16.507Z,86.08
2022-10-14T02:01:43.877Z,85.62
2022-10-14T02:04:16.460Z,85.38
2022-10-14T02:07:12.696Z,86.09
2022-10-14T02:10:01.516Z,86.21
2022-10-14T02:12:31.832Z,86.59
2022-10-14T02:15:28.721Z,86.60
2022-10-14T02:17:59.000Z,85.76
2022-10-14T02:20:31.927Z,85.54
2022-10-14T02:23:12.118Z,86.59
2022-10-14T02:25:40.424Z,87.02
2022-10-14T02:28:09.274Z,87.35
2022-10-14T02:30:39.475Z,86.56
2022-10-14T02:33:07.605Z,87.14
2022-10-14T02:35:34.925Z,87.04
2022-10-14T02:38:05.074Z,87.17
2022-10-14T02:40:40.610Z,87.24
2022-10-14T02:43:10.733Z,86.52
2022-10-14T02:45:38.977Z,86.69
2022-10-14T02:48:06.534Z,86.85
2022-10-14T02:50:33.901Z,86.38
2022-10-14T02:53:01.101Z,87.24
2022-10-14T02:55:28.351Z,87.84
2022-10-14T02:57:55.584Z,88.27
2022-10-14T03:00:22.917Z,88.26
2022-10-14T03:02:50.187Z,88.41
2022-10-14T03:05:19.651Z,87.98
2022-10-14T03:07:47.161Z,87.52
2022-10-14T03:10:17.909Z,86.97
2022-10-14T03:12:45.293Z,86.67
2022-10-14T03:15:21.313Z,86.30
2022-10-14T03:17:50.090Z,86.09
2022-10-14T03:20:21.403Z,86.00
2022-10-14T03:22:52.603Z,86.21
2022-10-14T03:25:20.009Z,86.32
2022-10-14T03:27:56.586Z,86.31
2022-10-14T03:30:35.462Z,86.42
2022-10-14T03:33:13.228Z,86.27
2022-10-14T03:35:47.437Z,86.13
2022-10-14T03:38:18.839Z,86.06
2022-10-14T03:40:47.543Z,85.99
2022-10-14T03:43:15.245Z,85.77
2022-10-14T03:45:54.873Z,85.49
2022-10-14T03:48:24.646Z,85.66
2022-10-14T03:50:56.311Z,85.52
2022-10-14T03:53:24.944Z,84.78
2022-10-14T03:55:52.542Z,85.36
2022-10-14T03:58:20.531Z,84.89
2022-10-14T04:00:57.214Z,85.29
2022-10-14T04:03:53.430Z,85.50
2022-10-14T04:06:21.006Z,84.87
2022-10-14T04:08:50.950Z,84.58
2022-10-14T04:11:27.450Z,85.56
2022-10-14T04:14:00.538Z,85.32
2022-10-14T04:16:30.007Z,85.33
2022-10-14T04:19:04.261Z,86.03
2022-10-14T04:21:32.024Z,86.62
2022-10-14T04:23:59.305Z,87.20
2022-10-14T04:26:52.676Z,87.77
2022-10-14T04:29:38.363Z,87.32
2022-10-14T04:32:12.892Z,87.24
2022-10-14T04:34:40.317Z,87.45
2022-10-14T04:37:09.055Z,87.75
2022-10-14T04:40:02.480Z,87.51
2022-10-14T04:42:31.640Z,87.92
2022-10-14T04:45:02.754Z,87.94
2022-10-14T04:47:48.345Z,87.85
2022-10-14T04:50:18.969Z,86.79
2022-10-14T04:53:09.439Z,86.92
2022-10-14T04:55:46.959Z,86.91
2022-10-14T04:58:14.357Z,87.22
2022-10-14T05:00:43.776Z,88.06
2022-10-14T05:03:24.794Z,87.39
2022-10-14T05:05:52.702Z,87.87
2022-10-14T05:08:20.618Z,88.09
2022-10-14T05:10:54.097Z,87.65
2022-10-14T05:13:35.864Z,86.94
2022-10-14T05:16:08.067Z,86.78
2022-10-14T05:18:37.188Z,87.00
2022-10-14T05:21:19.256Z,86.79
2022-10-14T05:24:14.509Z,86.65
2022-10-14T05:26:47.895Z,87.06
2022-10-14T05:29:17.177Z,86.17
2022-10-14T05:31:44.952Z,86.54
2022-10-14T05:34:26.829Z,86.21
2022-10-14T05:36:56.594Z,86.67
2022-10-14T05:39:24.327Z,86.68
2022-10-14T05:41:53.192Z,86.48
2022-10-14T05:44:25.245Z,86.51
2022-10-14T05:46:54.216Z,87.66
2022-10-14T05:49:22.150Z,87.75
2022-10-14T05:51:49.536Z,86.58
2022-10-14T05:54:22.364Z,86.47
2022-10-14T05:56:52.841Z,86.35
2022-10-14T05:59:20.863Z,86.18
2022-10-14T06:01:48.558Z,85.79
2022-10-14T06:04:20.136Z,84.80
2022-10-14T06:06:52.355Z,84.85
2022-10-14T06:09:30.591Z,84.95
2022-10-14T06:11:58.637Z,83.94
2022-10-14T06:14:26.313Z,83.66
2022-10-14T06:17:39.915Z,83.31
2022-10-14T06:20:11.396Z,83.21
2022-10-14T06:22:39.548Z,82.97
2022-10-14T06:25:08.917Z,82.55
2022-10-14T06:27:36.587Z,82.37
2022-10-14T06:30:04.793Z,81.91
2022-10-14T06:32:32.869Z,81.04
2022-10-14T06:35:00.939Z,81.92
2022-10-14T06:37:30.040Z,82.04
2022-10-14T06:39:57.894Z,81.83
2022-10-14T06:42:28.086Z,81.28
2022-10-14T06:44:57.109Z,81.07
2022-10-14T06:47:24.979Z,80.95
2022-10-14T06:49:52.320Z,81.29
2022-10-14T06:52:21.826Z,81.99
2022-10-14T06:54:50.149Z,81.02
2022-10-14T06:57:20.564Z,80.71
2022-10-14T06:59:51.320Z,80.61
2022-10-14T07:02:22.348Z,80.98
2022-10-14T07:04:50.060Z,81.00
2022-10-14T07:07:18.858Z,81.01
2022-10-14T07:09:47.346Z,81.93
2022-10-14T07:12:17.837Z,82.39
2022-10-14T07:14:45.832Z,81.77
2022-10-14T07:17:19.981Z,82.11
2022-10-14T07:19:48.352Z,82.23
2022-10-14T07:22:17.830Z,81.70
2022-10-14T07:24:46.332Z,81.48
2022-10-14T07:27:16.641Z,81.33
2022-10-14T07:29:44.206Z,82.17
2022-10-14T07:32:11.596Z,82.81
2022-10-14T07:34:39.048Z,82.64
2022-10-14T07:37:06.408Z,82.93
2022-10-14T07:39:34.085Z,82.80
2022-10-14T07:42:01.822Z,82.58
2022-10-14T07:44:29.666Z,82.58
2022-10-14T07:46:58.860Z,83.31
2022-10-14T07:49:26.512Z,82.77
2022-10-14T07:51:54.461Z,82.27
2022-10-14T07:54:24.175Z,81.10
2022-10-14T07:56:53.543Z,81.80
2022-10-14T07:59:21.290Z,81.90
2022-10-14T08:01:49.853Z,81.70
2022-10-14T08:04:18.019Z,81.56
2022-10-14T08:06:49.024Z,82.16
2022-10-14T08:09:35.017Z,81.76
2022-10-14T08:12:03.584Z,81.48
2022-10-14T08:14:32.982Z,81.43
2022-10-14T08:17:02.802Z,81.91
2022-10-14T08:19:53.838Z,82.28
2022-10-14T08:33:52.251Z,81.48
2022-10-14T08:36:20.735Z,81.22
2022-10-14T08:38:55.942Z,80.26
2022-10-14T08:41:51.473Z,79.48
2022-10-14T08:44:34.042Z,78.08
2022-10-14T08:47:04.763Z,76.84
2022-10-14T08:50:01.656Z,77.14
2022-10-14T08:52:43.398Z,75.77
2022-10-14T08:55:44.036Z,75.75
2022-10-14T08:58:20.698Z,75.94
2022-10-14T09:00:50.800Z,75.27
2022-10-14T09:03:24.183Z,74.92
2022-10-14T09:06:24.947Z,74.88
2022-10-14T09:08:59.492Z,74.43
2022-10-14T09:11:29.564Z,75.12
2022-10-14T09:14:23.194Z,75.01
2022-10-14T09:16:57.351Z,74.65
2022-10-14T09:20:05.462Z,74.82
2022-10-14T09:22:33.162Z,75.23
2022-10-14T09:25:01.445Z,74.97
2022-10-14T09:27:30.284Z,75.14
2022-10-14T09:30:00.202Z,74.48
2022-10-14T09:32:41.110Z,74.37
2022-10-14T09:35:32.584Z,73.83
2022-10-14T09:37:59.959Z,74.58
2022-10-14T09:40:32.097Z,74.88
2022-10-14T09:43:08.668Z,74.87
2022-10-14T09:46:04.027Z,74.32
2022-10-14T09:48:39.682Z,74.19
2022-10-14T09:51:23.877Z,73.87
2022-10-14T09:53:53.636Z,73.55
2022-10-14T09:56:39.014Z,73.30
2022-10-14T09:59:20.732Z,72.76
2022-10-14T10:02:02.138Z,72.94
2022-10-14T10:04:47.853Z,72.61
2022-10-14T10:07:34.925Z,72.50
2022-10-14T10:10:23.357Z,71.80
2022-10-14T10:13:13.412Z,72.34
2022-10-14T10:15:44.678Z,71.83
2022-10-14T10:18:19.735Z,71.26
2022-10-14T10:21:08.823Z,71.28
2022-10-14T10:23:37.078Z,72.64
2022-10-14T10:26:18.825Z,70.02
2022-10-14T10:28:50.270Z,70.08
2022-10-14T10:31:33.743Z,70.62
2022-10-14T10:34:28.570Z,70.01
2022-10-14T10:37:00.902Z,69.24
2022-10-14T10:39:54.006Z,69.93
2022-10-14T10:42:26.195Z,71.43
2022-10-14T10:45:06.746Z,69.10
2022-10-14T10:47:41.251Z,69.05
2022-10-14T10:50:38.167Z,68.19
2022-10-14T10:53:20.918Z,68.89
2022-10-14T10:56:13.690Z,68.27
2022-10-14T10:59:07.475Z,68.67
2022-10-14T11:01:55.214Z,69.59
2022-10-14T11:04:38.405Z,70.78
2022-10-14T11:08:05.882Z,71.32
2022-10-14T11:11:30.791Z,69.86
2022-10-14T11:14:13.575Z,69.92
2022-10-14T11:17:09.095Z,70.52
2022-10-14T11:20:22.855Z,70.16
2022-10-14T11:23:21.643Z,69.79
2022-10-14T11:26:21.411Z,68.79
2022-10-14T11:29:23.473Z,69.20
2022-10-14T11:31:54.968Z,69.13
2022-10-14T11:34:43.187Z,68.78
2022-10-14T11:37:29.175Z,67.49
2022-10-14T11:40:10.651Z,67.27
2022-10-14T11:43:11.101Z,66.90
2022-10-14T11:45:47.278Z,66.01
2022-10-14T11:48:24.069Z,65.85
2022-10-14T11:50:58.811Z,66.09
2022-10-14T11:53:48.521Z,66.88
2022-10-14T11:57:11.144Z,67.31
2022-10-14T12:00:05.535Z,67.63
2022-10-14T12:02:54.410Z,67.97
2022-10-14T12:05:53.339Z,68.80
2022-10-14T12:08:37.483Z,68.58
2022-10-14T12:11:28.456Z,68.31
2022-10-14T12:14:34.892Z,68.70
2022-10-14T12:17:05.674Z,69.07
2022-10-14T12:19:33.044Z,68.86
2022-10-14T12:22:09.524Z,69.51
2022-10-14T12:24:38.279Z,68.84
2022-10-14T12:27:06.696Z,69.04
2022-10-14T12:29:41.612Z,69.20
2022-10-14T12:32:20.374Z,68.24
2022-10-14T12:34:55.159Z,68.50
2022-10-14T12:37:31.634Z,69.18
2022-10-14T12:40:02.466Z,68.18
2022-10-14T12:42:30.937Z,67.56
2022-10-14T12:45:14.386Z,66.64
2022-10-14T12:47:41.831Z,66.26
2022-10-14T12:50:16.642Z,65.61
2022-10-14T12:52:48.416Z,65.33
2022-10-14T12:55:20.554Z,65.90
2022-10-14T12:58:02.431Z,64.27
2022-10-14T13:00:35.646Z,62.64
2022-10-14T13:03:04.174Z,60.89
2022-10-14T13:05:43.047Z,59.75
2022-10-14T13:08:12.133Z,60.37
2022-10-14T13:10:45.183Z,61.10
2022-10-14T13:13:42.344Z,61.81
2022-10-14T13:16:10.794Z,61.81
2022-10-14T13:18:44.226Z,62.43
2022-10-14T13:21:41.514Z,63.32
2022-10-14T13:24:18.040Z,63.32
2022-10-14T13:26:51.633Z,62.92
2022-10-14T13:29:40.341Z,63.09
2022-10-14T13:32:38.713Z,63.61
2022-10-14T13:35:22.064Z,63.23
2022-10-14T13:38:13.177Z,64.51
2022-10-14T13:40:44.797Z,62.83
2022-10-14T13:43:19.181Z,62.76
2022-10-14T13:45:55.488Z,62.94
2022-10-14T13:48:29.599Z,62.27
2022-10-14T13:51:24.687Z,62.01
2022-10-14T13:54:17.791Z,64.33
2022-10-14T13:57:13.801Z,63.62
2022-10-14T14:00:11.620Z,63.17
2022-10-14T14:02:40.870Z,62.88
2022-10-14T14:05:14.205Z,62.62
2022-10-14T14:08:21.707Z,62.95
2022-10-14T14:10:29.217Z,63.58
2022-10-14T14:12:56.871Z,63.51
2022-10-14T14:15:26.725Z,63.42
2022-10-14T14:17:54.624Z,64.21
2022-10-14T14:20:24.022Z,64.70
2022-10-14T14:22:53.943Z,64.63
2022-10-14T14:25:34.024Z,64.95
2022-10-14T14:28:02.998Z,64.63
2022-10-14T14:30:30.396Z,64.41
2022-10-14T14:32:59.763Z,64.50
2022-10-14T14:35:27.602Z,64.19
2022-10-14T14:37:56.440Z,64.18
2022-10-14T14:40:28.835Z,64.28
2022-10-14T14:43:02.028Z,64.81
2022-10-14T14:45:31.199Z,65.01
2022-10-14T14:48:01.718Z,64.62
2022-10-14T14:50:48.880Z,64.86
2022-10-14T14:53:24.057Z,64.80
2022-10-14T14:55:54.495Z,65.21
2022-10-14T14:58:26.680Z,65.04
2022-10-14T15:00:55.188Z,65.80
2022-10-14T15:03:24.529Z,65.72
2022-10-14T15:06:02.039Z,65.92
2022-10-14T15:08:36.329Z,65.66
2022-10-14T15:11:03.924Z,65.41
2022-10-14T15:13:40.436Z,65.65
2022-10-14T15:16:07.991Z,66.25
2022-10-14T15:18:37.736Z,66.71
2022-10-14T15:21:11.740Z,66.65
2022-10-14T15:23:53.402Z,66.17
2022-10-14T15:26:34.824Z,67.27
2022-10-14T15:29:08.351Z,67.12
2022-10-14T15:31:35.999Z,67.68
2022-10-14T15:34:03.356Z,67.39
2022-10-14T15:36:34.479Z,67.69
2022-10-14T15:39:02.662Z,67.87
2022-10-14T15:41:30.124Z,68.52
2022-10-14T15:43:57.445Z,68.92
2022-10-14T15:46:43.393Z,68.91
2022-10-14T15:49:15.445Z,69.18
2022-10-14T15:51:42.745Z,69.19
2022-10-14T15:54:11.403Z,69.43
2022-10-14T15:56:39.534Z,69.52
2022-10-14T15:59:06.811Z,70.15
2022-10-14T16:01:35.806Z,70.44
2022-10-14T16:04:03.960Z,70.23
2022-10-14T16:06:32.697Z,70.05
2022-10-14T16:09:00.124Z,70.54
2022-10-14T16:11:29.545Z,71.46
2022-10-14T16:13:57.177Z,71.62
2022-10-14T16:16:33.052Z,71.36
2022-10-14T16:19:03.590Z,71.34
2022-10-14T16:21:31.183Z,71.42
2022-10-14T16:24:01.246Z,71.29
2022-10-14T16:26:29.641Z,71.06
2022-10-14T16:28:57.278Z,71.17
2022-10-14T16:31:24.719Z,71.16
2022-10-14T16:33:57.016Z,71.44
2022-10-14T16:36:26.211Z,72.27
2022-10-14T16:38:56.879Z,73.41
2022-10-14T16:41:27.529Z,73.95
2022-10-14T16:43:54.919Z,74.53
2022-10-14T16:46:42.132Z,74.98
2022-10-14T16:49:09.444Z,75.67
2022-10-14T16:51:36.808Z,75.85
2022-10-14T16:54:04.282Z,75.46
2022-10-14T16:56:50.104Z,75.58
2022-10-14T16:59:17.458Z,75.22
2022-10-14T17:01:45.018Z,75.07
2022-10-14T17:04:12.720Z,76.39
2022-10-14T17:06:40.310Z,76.38
2022-10-14T17:09:09.105Z,76.69
2022-10-14T17:11:36.403Z,76.45
2022-10-14T17:14:03.966Z,77.56
2022-10-14T17:16:31.379Z,77.70
2022-10-14T17:18:59.162Z,77.58
2022-10-14T17:21:29.611Z,78.00
2022-10-14T17:24:03.680Z,78.45
2022-10-14T17:26:31.832Z,78.48
2022-10-14T17:28:59.175Z,78.20
2022-10-14T17:31:26.789Z,77.46
2022-10-14T17:33:54.097Z,77.03
2022-10-14T17:36:23.057Z,77.48
2022-10-14T17:38:51.085Z,78.06
2022-10-14T17:41:18.838Z,77.77
2022-10-14T17:43:50.101Z,77.66
2022-10-14T17:46:20.846Z,78.16
2022-10-14T17:48:52.993Z,78.83
2022-10-14T17:51:23.024Z,78.69
2022-10-14T17:53:57.080Z,78.80
2022-10-14T17:56:24.581Z,79.44
2022-10-14T17:58:55.786Z,79.52
2022-10-14T18:01:36.908Z,79.66
2022-10-14T18:04:05.123Z,79.68
2022-10-14T18:06:33.666Z,80.27
2022-10-14T18:09:02.279Z,80.84
2022-10-14T18:11:49.707Z,80.79
2022-10-14T18:14:18.397Z,80.79
2022-10-14T18:16:47.493Z,80.51
2022-10-14T18:19:16.788Z,80.90
2022-10-14T18:21:44.534Z,80.18
2022-10-14T18:24:12.236Z,80.01
2022-10-14T18:26:40.830Z,79.61
2022-10-14T18:29:08.705Z,79.81
2022-10-14T18:31:36.088Z,80.50
2022-10-14T18:34:03.818Z,80.72
2022-10-14T18:36:33.154Z,80.06
2022-10-14T18:39:02.159Z,79.52
2022-10-14T18:41:29.911Z,79.89
2022-10-14T18:44:00.090Z,79.51
2022-10-14T18:46:29.668Z,79.31
2022-10-14T18:48:57.877Z,79.16
2022-10-14T18:51:29.882Z,79.66
2022-10-14T18:53:59.193Z,79.80
2022-10-14T18:56:31.788Z,80.46
2022-10-14T18:59:01.407Z,80.48
2022-10-14T19:01:29.244Z,80.57
2022-10-14T19:03:56.931Z,80.19
2022-10-14T19:06:24.563Z,80.41
2022-10-14T19:08:52.175Z,80.84
2022-10-14T19:11:21.261Z,81.12
2022-10-14T19:13:50.215Z,81.06
2022-10-14T19:16:19.249Z,80.70
2022-10-14T19:18:46.731Z,80.19
2022-10-14T19:21:15.214Z,80.35
2022-10-14T19:23:43.496Z,80.38
2022-10-14T19:28:50.042Z,81.60
2022-10-14T19:31:19.548Z,82.07
2022-10-14T19:33:46.953Z,81.61
2022-10-14T19:36:15.857Z,81.61
2022-10-14T19:38:52.304Z,81.40
2022-10-14T19:41:19.565Z,81.58
2022-10-14T19:43:46.872Z,81.55
2022-10-14T19:46:14.448Z,81.39
2022-10-14T19:48:41.684Z,81.46
2022-10-14T19:51:11.865Z,81.58
2022-10-14T19:53:39.311Z,81.72
2022-10-14T19:56:08.555Z,81.64
2022-10-14T19:58:38.558Z,81.51
2022-10-14T20:01:08.452Z,82.24
2022-10-14T20:03:35.853Z,82.10
2022-10-14T20:06:03.576Z,81.86
2022-10-14T20:08:31.017Z,81.50
2022-10-14T20:11:01.995Z,81.50
2022-10-14T20:13:29.404Z,81.00
2022-10-14T20:15:58.348Z,81.40
2022-10-14T20:18:25.707Z,81.52
2022-10-14T20:20:53.043Z,81.74
2022-10-14T20:23:20.396Z,81.96
2022-10-14T20:25:47.890Z,81.81
2022-10-14T20:28:19.606Z,83.25
2022-10-14T20:30:47.376Z,83.83
2022-10-14T20:33:14.636Z,83.76
2022-10-14T20:35:41.992Z,83.61
2022-10-14T20:38:09.233Z,83.42
2022-10-14T20:40:36.601Z,83.52
2022-10-14T20:43:04.036Z,83.78
2022-10-14T20:45:31.855Z,83.56
2022-10-14T20:47:59.084Z,83.20
2022-10-14T20:50:26.429Z,82.68
2022-10-14T20:52:53.639Z,81.93
2022-10-14T20:55:20.934Z,83.02
2022-10-14T20:57:48.326Z,82.87
2022-10-14T21:00:15.611Z,83.03
2022-10-14T21:05:11.076Z,82.70
2022-10-14T21:07:38.281Z,82.97
2022-10-14T21:10:06.914Z,83.51
2022-10-14T21:12:34.284Z,83.92
2022-10-14T21:15:01.591Z,83.88
2022-10-14T21:17:29.989Z,83.19
2022-10-14T21:19:57.318Z,83.00
2022-10-14T21:22:25.174Z,82.50
2022-10-14T21:24:52.636Z,82.62
2022-10-14T21:27:19.932Z,82.72
2022-10-14T21:29:49.442Z,82.77
2022-10-14T21:32:16.714Z,82.39
2022-10-14T21:34:44.164Z,82.73
2022-10-14T21:37:12.221Z,83.60
2022-10-14T21:39:39.500Z,84.24
2022-10-14T21:42:06.810Z,84.05
2022-10-14T21:44:34.132Z,83.87
2022-10-14T21:47:01.426Z,83.68
2022-10-14T21:49:28.679Z,83.62
2022-10-14T21:51:55.915Z,83.74
2022-10-14T21:54:24.854Z,83.62
2022-10-14T21:56:52.188Z,83.81
2022-10-14T21:59:19.519Z,84.20
2022-10-14T22:01:46.987Z,84.00
2022-10-14T22:04:14.268Z,83.60
2022-10-14T22:06:41.490Z,82.88
2022-10-14T22:09:08.877Z,83.36
2022-10-14T22:11:37.905Z,83.10
2022-10-14T22:14:06.338Z,83.59
2022-10-14T22:16:33.737Z,83.21
2022-10-14T22:19:01.663Z,83.09
2022-10-14T22:21:30.040Z,83.66
2022-10-14T22:23:58.503Z,83.54
2022-10-14T22:26:26.544Z,84.04
2022-10-14T22:29:20.736Z,84.23
2022-10-14T22:31:48.003Z,84.50
2022-10-14T22:34:16.509Z,84.71
2022-10-14T22:36:44.009Z,84.47
2022-10-14T22:39:13.437Z,84.09
2022-10-14T22:41:40.711Z,83.89
2022-10-14T22:44:09.285Z,83.92
2022-10-14T22:46:37.184Z,84.38
2022-10-14T22:49:04.636Z,84.92
2022-10-14T22:51:36.792Z,85.04
2022-10-14T22:54:04.245Z,85.26
2022-10-14T22:56:31.641Z,84.69
2022-10-14T22:59:01.311Z,84.10
2022-10-14T23:01:28.919Z,84.50
2022-10-14T23:03:57.098Z,84.47
2022-10-14T23:06:24.384Z,84.68
2022-10-14T23:08:51.689Z,84.81
2022-10-14T23:11:20.245Z,85.14
2022-10-14T23:13:47.663Z,84.78
2022-10-14T23:16:16.449Z,84.40
2022-10-14T23:18:43.854Z,84.91
2022-10-14T23:21:15.226Z,84.02
2022-10-14T23:23:42.849Z,83.38
2022-10-14T23:26:11.118Z,83.54
2022-10-14T23:28:38.554Z,84.03
2022-10-14T23:31:12.950Z,84.74
2022-10-14T23:33:40.351Z,85.16
2022-10-14T23:36:08.932Z,85.51
2022-10-14T23:38:36.493Z,86.37
2022-10-14T23:41:04.017Z,86.35
2022-10-14T23:43:31.505Z,85.72
2022-10-14T23:45:58.743Z,85.72
2022-10-14T23:48:26.215Z,85.70
2022-10-14T23:50:53.538Z,85.48
2022-10-14T23:53:20.906Z,85.32
2022-10-14T23:55:48.168Z,85.15
2022-10-14T23:58:15.399Z,85.19
